Time;durP1;ratioP1;P1;durP2;ratioP2;P2;SDS_P1;SDS_P2;PMS_P1;PMS_P2;Temp;Humidity;BMP_temperature;BMP_pressure;BME280_temperature;BME280_humidity;BME280_pressure;Samples;Min_cycle;Max_cycle;Signal;HPM_P1;HPM_P2
2021/11/04 00:00:31;;;;;;;263.42;32.50;;;5.90;99.90;;;;;;5005543;28;20041;-84
2021/11/04 00:02:57;;;;;;;420.95;36.42;;;5.90;99.90;;;;;;5015471;28;20136;-85
2021/11/04 00:05:24;;;;;;;257.70;30.80;;;5.90;99.90;;;;;;5012803;28;20071;-87
2021/11/04 00:07:57;;;;;;;352.67;35.75;;;5.80;99.90;;;;;;4996582;28;20049;-86
2021/11/04 00:10:26;;;;;;;206.18;27.63;;;5.90;99.90;;;;;;5012875;28;20579;-86
2021/11/04 00:12:55;;;;;;;381.60;33.25;;;5.90;99.90;;;;;;4989648;28;20124;-86
2021/11/04 00:15:23;;;;;;;515.88;38.92;;;5.90;99.90;;;;;;5014956;28;20541;-85
2021/11/04 00:17:56;;;;;;;318.17;31.98;;;5.80;99.90;;;;;;5011435;28;20052;-86
2021/11/04 00:20:31;;;;;;;201.40;29.17;;;5.80;99.90;;;;;;4997289;28;20138;-88
2021/11/04 00:23:09;;;;;;;296.52;31.85;;;5.80;99.90;;;;;;4993221;28;20049;-86
2021/11/04 00:25:37;;;;;;;339.08;32.72;;;5.80;99.90;;;;;;4983249;28;20037;-85
2021/11/04 00:28:06;;;;;;;331.27;29.80;;;5.80;99.90;;;;;;5009939;28;20174;-88
2021/11/04 00:30:32;;;;;;;202.13;28.70;;;5.80;99.90;;;;;;5013143;28;20307;-85
2021/11/04 00:32:58;;;;;;;378.00;30.15;;;5.80;99.90;;;;;;4993052;28;20077;-87
2021/11/04 00:35:29;;;;;;;330.35;31.30;;;5.80;99.90;;;;;;4994028;28;20147;-85
2021/11/04 00:38:03;;;;;;;275.38;30.35;;;5.80;99.90;;;;;;4981852;28;20053;-86
2021/11/04 00:40:34;;;;;;;391.85;33.00;;;5.70;99.90;;;;;;4995722;28;20053;-86
2021/11/04 00:43:03;;;;;;;432.13;32.33;;;5.70;99.90;;;;;;5012726;28;20041;-85
2021/11/04 00:45:47;;;;;;;337.85;29.00;;;5.70;99.90;;;;;;5030421;28;20052;-86
2021/11/04 00:48:16;;;;;;;318.90;29.63;;;5.70;99.90;;;;;;4995155;28;20040;-86
2021/11/04 00:50:42;;;;;;;363.02;32.35;;;5.70;99.90;;;;;;4989560;28;20468;-86
2021/11/04 00:53:07;;;;;;;227.82;26.13;;;5.70;99.90;;;;;;4991827;28;20187;-85
2021/11/04 00:55:33;;;;;;;384.90;28.77;;;5.70;99.90;;;;;;4991310;28;20399;-85
2021/11/04 00:58:13;;;;;;;355.42;29.35;;;5.70;99.90;;;;;;4979301;28;20037;-86
2021/11/04 01:00:44;;;;;;;301.80;27.92;;;5.60;99.90;;;;;;4993392;28;20046;-87
2021/11/04 01:03:16;;;;;;;434.40;32.15;;;5.60;99.90;;;;;;5006121;28;20082;-87
2021/11/04 01:05:42;;;;;;;367.33;28.40;;;5.60;99.90;;;;;;4988705;28;20447;-85
2021/11/04 01:08:08;;;;;;;362.15;27.38;;;5.60;99.90;;;;;;4990852;28;20500;-87
2021/11/04 01:10:37;;;;;;;507.30;36.88;;;5.50;99.90;;;;;;4976325;28;20663;-85
2021/11/04 01:13:03;;;;;;;271.23;29.00;;;5.50;99.90;;;;;;5010073;28;20052;-85
2021/11/04 01:15:32;;;;;;;436.10;32.72;;;5.50;99.90;;;;;;4996648;28;20052;-85
2021/11/04 01:18:01;;;;;;;473.05;36.22;;;5.40;99.90;;;;;;4994007;28;20049;-86
2021/11/04 01:20:30;;;;;;;363.40;31.92;;;5.40;99.90;;;;;;4986836;28;20747;-85
2021/11/04 01:23:02;;;;;;;189.77;30.75;;;5.40;99.90;;;;;;5008931;28;20053;-85
2021/11/04 01:25:35;;;;;;;297.33;30.83;;;5.40;99.90;;;;;;5012620;28;20115;-85
2021/11/04 01:28:10;;;;;;;197.10;24.13;;;5.40;99.90;;;;;;5010997;28;20095;-85
2021/11/04 01:30:39;;;;;;;236.10;28.92;;;5.40;99.90;;;;;;5010439;28;20480;-87
2021/11/04 01:33:12;;;;;;;331.08;27.50;;;5.40;99.90;;;;;;5010928;28;22109;-85
2021/11/04 01:35:43;;;;;;;464.90;35.40;;;5.40;99.90;;;;;;5010625;28;20473;-84
2021/11/04 01:38:24;;;;;;;162.02;25.70;;;5.40;99.90;;;;;;4993071;28;20037;-87
2021/11/04 01:40:55;;;;;;;236.18;28.35;;;5.40;99.90;;;;;;5010735;28;20050;-84
2021/11/04 01:43:27;;;;;;;159.55;27.27;;;5.40;99.90;;;;;;4997119;28;20502;-85
2021/11/04 01:45:57;;;;;;;228.20;31.90;;;5.40;99.90;;;;;;5014681;28;20057;-85
2021/11/04 01:48:27;;;;;;;307.13;31.02;;;5.40;99.90;;;;;;4976883;28;20049;-86
2021/11/04 01:51:08;;;;;;;283.10;30.27;;;5.40;99.90;;;;;;4992175;28;20403;-86
2021/11/04 01:53:37;;;;;;;245.15;29.67;;;5.40;99.90;;;;;;4979543;28;20633;-86
2021/11/04 01:56:03;;;;;;;202.00;27.92;;;5.40;99.90;;;;;;4972291;28;21586;-85
2021/11/04 01:58:29;;;;;;;286.80;29.00;;;5.40;99.90;;;;;;5008547;28;20669;-86
2021/11/04 02:00:55;;;;;;;254.10;29.08;;;5.40;99.90;;;;;;4994280;28;20047;-85
2021/11/04 02:03:49;;;;;;;448.10;30.55;;;5.40;99.90;;;;;;4989529;28;20092;-88
2021/11/04 02:06:41;;;;;;;213.38;25.80;;;5.40;99.90;;;;;;5010782;28;20045;-88
2021/11/04 02:09:28;;;;;;;173.75;24.13;;;5.30;99.90;;;;;;5005096;28;20087;-88
2021/11/04 02:12:05;;;;;;;148.10;24.08;;;5.30;99.90;;;;;;4989824;28;20045;-86
2021/11/04 02:14:38;;;;;;;546.67;37.03;;;5.30;99.90;;;;;;5014130;28;21066;-85
2021/11/04 02:17:08;;;;;;;269.13;27.27;;;5.30;99.90;;;;;;4996072;28;20172;-85
2021/11/04 02:19:44;;;;;;;280.35;30.02;;;5.30;99.90;;;;;;4989677;28;21532;-87
2021/11/04 02:22:25;;;;;;;156.70;25.25;;;5.30;99.90;;;;;;5007167;28;20430;-85
2021/11/04 02:25:12;;;;;;;184.68;24.98;;;5.30;99.90;;;;;;5001724;28;20176;-87
2021/11/04 02:27:40;;;;;;;88.78;20.92;;;5.30;99.90;;;;;;5007856;28;20099;-86
2021/11/04 02:30:06;;;;;;;220.38;24.60;;;5.30;99.90;;;;;;4994001;28;20064;-87
2021/11/04 02:32:33;;;;;;;144.77;22.40;;;5.30;99.90;;;;;;5011535;28;20030;-89
2021/11/04 02:34:59;;;;;;;156.43;21.08;;;5.30;99.90;;;;;;4961528;28;20034;-88
2021/11/04 02:37:28;;;;;;;180.50;23.23;;;5.30;99.90;;;;;;4992754;28;20087;-87
2021/11/04 02:39:54;;;;;;;114.57;22.05;;;5.30;99.90;;;;;;4991304;28;20037;-86
2021/11/04 02:42:20;;;;;;;181.13;24.15;;;5.30;99.90;;;;;;4993366;28;20045;-86
2021/11/04 02:44:46;;;;;;;192.05;23.23;;;5.20;99.90;;;;;;4995860;28;20045;-87
2021/11/04 02:47:12;;;;;;;64.88;20.17;;;5.20;99.90;;;;;;4993235;28;20041;-86
2021/11/04 02:49:41;;;;;;;209.45;25.88;;;5.20;99.90;;;;;;4980645;28;20034;-86
2021/11/04 02:52:07;;;;;;;129.95;23.75;;;5.20;99.90;;;;;;5001118;28;20029;-87
2021/11/04 02:54:33;;;;;;;271.75;23.20;;;5.20;99.90;;;;;;4977567;28;20029;-87
2021/11/04 02:56:59;;;;;;;131.70;18.92;;;5.20;99.90;;;;;;5013383;28;20464;-88
2021/11/04 02:59:26;;;;;;;205.57;20.77;;;5.10;99.90;;;;;;5009463;28;20048;-87
2021/11/04 03:01:58;;;;;;;196.63;19.88;;;5.10;99.90;;;;;;5011873;28;20038;-86
2021/11/04 03:04:24;;;;;;;210.55;18.88;;;5.10;99.90;;;;;;4992289;28;20059;-87
2021/11/04 03:06:51;;;;;;;243.98;17.73;;;5.00;99.90;;;;;;4993852;28;20423;-86
2021/11/04 03:09:18;;;;;;;143.15;15.95;;;4.90;99.90;;;;;;4977249;28;20080;-86
2021/11/04 03:11:44;;;;;;;95.85;16.02;;;4.90;99.90;;;;;;4991494;28;20071;-86
2021/11/04 03:14:10;;;;;;;159.13;16.83;;;4.90;99.90;;;;;;4992139;28;20428;-88
2021/11/04 03:16:39;;;;;;;55.97;13.27;;;4.90;99.90;;;;;;5025392;28;20443;-86
2021/11/04 03:19:11;;;;;;;68.93;16.80;;;4.80;99.90;;;;;;5008124;28;20034;-88
2021/11/04 03:21:41;;;;;;;86.90;16.25;;;4.80;99.90;;;;;;4985885;28;20041;-87
2021/11/04 03:24:08;;;;;;;158.27;19.33;;;4.80;99.90;;;;;;5008990;28;20149;-87
2021/11/04 03:26:38;;;;;;;122.75;18.02;;;4.80;99.90;;;;;;5027805;28;20141;-89
2021/11/04 03:29:05;;;;;;;63.47;14.82;;;4.80;99.90;;;;;;4988995;28;20270;-88
2021/11/04 03:31:36;;;;;;;82.85;16.23;;;4.80;99.90;;;;;;5011966;28;20033;-88
2021/11/04 03:34:04;;;;;;;114.03;18.65;;;4.80;99.90;;;;;;5012553;28;20507;-86
2021/11/04 03:36:32;;;;;;;89.20;18.67;;;4.80;99.90;;;;;;5009277;28;20056;-85
2021/11/04 03:38:59;;;;;;;64.40;17.20;;;4.80;99.90;;;;;;5012312;28;20061;-86
2021/11/04 03:41:25;;;;;;;96.10;20.75;;;4.80;99.90;;;;;;4994103;28;20045;-88
2021/11/04 03:43:51;;;;;;;90.57;19.15;;;4.80;99.90;;;;;;4993980;28;20102;-85
2021/11/04 03:46:19;;;;;;;82.70;20.15;;;4.80;99.90;;;;;;4992635;28;20597;-86
2021/11/04 03:48:46;;;;;;;91.85;21.85;;;4.80;99.90;;;;;;4994353;28;20041;-85
2021/11/04 03:51:13;;;;;;;77.32;20.10;;;4.80;99.90;;;;;;4991857;28;20047;-86
2021/11/04 03:53:41;;;;;;;102.55;22.67;;;4.80;99.90;;;;;;5026819;28;20067;-86
2021/11/04 03:56:07;;;;;;;96.88;23.17;;;4.80;99.90;;;;;;5013190;28;20068;-85
2021/11/04 03:58:40;;;;;;;85.13;24.52;;;4.80;99.90;;;;;;4974874;28;20121;-89
2021/11/04 04:01:07;;;;;;;104.38;24.65;;;4.90;99.90;;;;;;5013532;28;20512;-86
2021/11/04 04:03:34;;;;;;;65.18;22.15;;;4.90;99.90;;;;;;5009423;28;20048;-86
2021/11/04 04:06:05;;;;;;;83.85;22.67;;;4.90;99.90;;;;;;5028139;28;20045;-89
2021/11/04 04:08:33;;;;;;;68.13;23.35;;;4.90;99.90;;;;;;5003477;28;20163;-88
2021/11/04 04:10:59;;;;;;;52.40;20.90;;;4.90;99.90;;;;;;5009019;28;20523;-88
2021/11/04 04:13:25;;;;;;;149.75;26.15;;;4.90;99.90;;;;;;4989187;28;20029;-87
2021/11/04 04:15:51;;;;;;;113.05;23.27;;;4.90;99.90;;;;;;5005144;28;20562;-86
2021/11/04 04:18:17;;;;;;;103.43;24.83;;;5.00;99.90;;;;;;5010832;28;20103;-87
2021/11/04 04:20:43;;;;;;;175.35;26.30;;;5.00;99.90;;;;;;4997492;28;20301;-86
2021/11/04 04:23:09;;;;;;;95.85;24.38;;;5.00;99.90;;;;;;4993598;28;20041;-85
2021/11/04 04:25:34;;;;;;;69.07;24.42;;;5.00;99.90;;;;;;4992815;28;20049;-87
2021/11/04 04:28:00;;;;;;;119.13;24.63;;;5.00;99.90;;;;;;5009775;28;20499;-86
2021/11/04 04:30:27;;;;;;;185.98;27.23;;;5.00;99.90;;;;;;5007197;28;20519;-89
2021/11/04 04:32:52;;;;;;;52.25;21.17;;;5.00;99.90;;;;;;5011358;28;20030;-89
2021/11/04 04:35:18;;;;;;;236.15;28.08;;;5.00;99.90;;;;;;4980648;28;20064;-88
2021/11/04 04:37:44;;;;;;;168.50;23.88;;;5.00;99.90;;;;;;5010284;28;20038;-86
2021/11/04 04:40:10;;;;;;;112.13;24.25;;;5.00;99.90;;;;;;4991182;28;20263;-85
2021/11/04 04:42:37;;;;;;;226.25;27.23;;;5.00;99.90;;;;;;4992143;28;20041;-86
2021/11/04 04:45:04;;;;;;;92.68;23.88;;;5.00;99.90;;;;;;5005180;28;20080;-86
2021/11/04 04:47:30;;;;;;;154.80;29.00;;;5.00;99.90;;;;;;5007237;28;20041;-85
2021/11/04 04:49:58;;;;;;;53.42;21.35;;;5.00;99.90;;;;;;4983096;28;20493;-88
2021/11/04 04:52:25;;;;;;;74.90;21.60;;;5.00;99.90;;;;;;5002826;28;20060;-86
2021/11/04 04:54:51;;;;;;;63.03;21.90;;;5.00;99.90;;;;;;4987175;28;20480;-86
2021/11/04 04:57:26;;;;;;;60.83;21.58;;;5.00;99.90;;;;;;4998780;28;20045;-86
2021/11/04 04:59:55;;;;;;;145.93;27.73;;;5.00;99.90;;;;;;5017685;28;20735;-85
2021/11/04 05:02:22;;;;;;;67.10;22.55;;;5.00;99.90;;;;;;4999518;28;20260;-87
2021/11/04 05:04:48;;;;;;;130.05;27.90;;;5.00;99.90;;;;;;5008387;28;20064;-85
2021/11/04 05:07:15;;;;;;;178.00;28.33;;;5.00;99.90;;;;;;5027361;28;20313;-86
2021/11/04 05:09:41;;;;;;;202.98;28.67;;;5.00;99.90;;;;;;5010350;28;20045;-87
2021/11/04 05:12:07;;;;;;;130.52;25.65;;;5.00;99.90;;;;;;5009149;28;20131;-87
2021/11/04 05:14:33;;;;;;;87.28;25.25;;;5.00;99.90;;;;;;4994546;28;20764;-86
2021/11/04 05:16:59;;;;;;;95.38;25.00;;;5.00;99.90;;;;;;4990400;28;20040;-88
2021/11/04 05:19:24;;;;;;;196.88;29.00;;;5.00;99.90;;;;;;4974763;28;20609;-88
2021/11/04 05:21:50;;;;;;;294.83;32.15;;;5.00;99.90;;;;;;4993735;28;20037;-86
2021/11/04 05:24:16;;;;;;;130.82;27.20;;;5.00;99.90;;;;;;4976884;28;20048;-86
2021/11/04 05:26:43;;;;;;;187.88;29.70;;;5.00;99.90;;;;;;4990217;28;20045;-86
2021/11/04 05:29:09;;;;;;;96.28;24.30;;;5.00;99.90;;;;;;4972476;28;20099;-87
2021/11/04 05:31:34;;;;;;;76.30;24.45;;;5.00;99.90;;;;;;4988839;28;20053;-86
2021/11/04 05:34:01;;;;;;;85.53;25.23;;;5.00;99.90;;;;;;4989932;28;21535;-87
2021/11/04 05:36:27;;;;;;;68.75;24.10;;;5.00;99.90;;;;;;4991110;28;20042;-87
2021/11/04 05:38:54;;;;;;;68.25;23.25;;;5.00;99.90;;;;;;4993189;28;20048;-88
2021/11/04 05:41:20;;;;;;;79.40;24.08;;;5.00;99.90;;;;;;4969978;28;20045;-89
2021/11/04 05:43:46;;;;;;;51.88;21.55;;;5.00;99.90;;;;;;4964924;28;20048;-86
2021/11/04 05:46:12;;;;;;;67.55;23.33;;;5.00;99.90;;;;;;4983029;28;20053;-86
2021/11/04 05:48:37;;;;;;;58.03;22.55;;;5.00;99.90;;;;;;4985563;28;20049;-88
2021/11/04 05:51:04;;;;;;;59.08;23.52;;;5.00;99.90;;;;;;5004550;28;20117;-87
2021/11/04 05:53:30;;;;;;;43.03;19.70;;;5.00;99.90;;;;;;4990351;28;20045;-85
2021/11/04 05:55:55;;;;;;;43.88;19.50;;;5.00;99.90;;;;;;4990690;28;20042;-89
2021/11/04 05:58:21;;;;;;;131.73;25.85;;;5.00;99.90;;;;;;5009767;28;20435;-89
2021/11/04 06:00:47;;;;;;;69.00;23.48;;;5.00;99.90;;;;;;4984237;28;20528;-86
2021/11/04 06:03:13;;;;;;;72.47;20.92;;;5.00;99.90;;;;;;4991987;28;20692;-85
2021/11/04 06:05:40;;;;;;;47.40;20.17;;;4.90;99.90;;;;;;4996972;28;20516;-85
2021/11/04 06:08:07;;;;;;;60.80;23.13;;;5.00;99.90;;;;;;4996180;28;20037;-86
2021/11/04 06:10:33;;;;;;;283.60;26.63;;;4.90;99.90;;;;;;5013360;28;20042;-87
2021/11/04 06:12:59;;;;;;;226.93;23.17;;;4.90;99.90;;;;;;4997363;28;20033;-85
2021/11/04 06:15:25;;;;;;;280.65;23.58;;;4.90;99.90;;;;;;4998259;28;20042;-87
2021/11/04 06:17:50;;;;;;;340.52;27.95;;;4.80;99.90;;;;;;4993115;28;20037;-86
2021/11/04 06:20:16;;;;;;;416.83;25.67;;;4.80;99.90;;;;;;4954537;28;20045;-87
2021/11/04 06:22:43;;;;;;;418.20;25.45;;;4.80;99.90;;;;;;5016173;28;20045;-85
2021/11/04 06:25:28;;;;;;;371.17;27.20;;;4.80;99.90;;;;;;5009144;28;20155;-88
2021/11/04 06:28:13;;;;;;;301.83;24.08;;;4.80;99.90;;;;;;5012578;28;20056;-88
2021/11/04 06:30:39;;;;;;;212.18;22.15;;;4.80;99.90;;;;;;4995806;28;20045;-87
2021/11/04 06:33:05;;;;;;;213.60;20.60;;;4.80;99.90;;;;;;4994537;28;20135;-89
2021/11/04 06:35:54;;;;;;;377.77;26.95;;;4.80;99.90;;;;;;4986150;28;20499;-86
2021/11/04 06:38:21;;;;;;;147.55;17.92;;;4.80;99.90;;;;;;4983580;28;20033;-87
2021/11/04 06:40:47;;;;;;;218.52;18.85;;;4.70;99.90;;;;;;5014028;28;20037;-87
2021/11/04 06:43:13;;;;;;;198.00;20.80;;;4.70;99.90;;;;;;4972123;28;20038;-87
2021/11/04 06:45:51;;;;;;;230.43;19.25;;;4.70;99.90;;;;;;5001021;28;20288;-89
2021/11/04 06:48:26;;;;;;;189.88;17.48;;;4.70;99.90;;;;;;5002050;28;20037;-87
2021/11/04 06:50:56;;;;;;;230.30;16.75;;;4.60;99.90;;;;;;5002442;28;20080;-86
2021/11/04 06:53:26;;;;;;;193.85;15.68;;;4.60;99.90;;;;;;5001235;28;20301;-86
2021/11/04 06:55:54;;;;;;;112.68;15.73;;;4.50;99.90;;;;;;5016263;28;20523;-86
2021/11/04 06:58:24;;;;;;;93.65;13.95;;;4.50;99.90;;;;;;5004371;28;20038;-89
2021/11/04 07:01:00;;;;;;;91.07;14.48;;;4.40;99.90;;;;;;5020286;28;20515;-86
2021/11/04 07:03:30;;;;;;;102.50;14.07;;;4.50;99.90;;;;;;5017572;28;20053;-85
2021/11/04 07:06:07;;;;;;;171.18;17.20;;;4.40;99.90;;;;;;5002834;28;20033;-87
2021/11/04 07:08:40;;;;;;;154.80;17.48;;;4.40;99.90;;;;;;5021325;28;20038;-89
2021/11/04 07:11:06;;;;;;;70.30;14.13;;;4.30;99.90;;;;;;5019485;28;20484;-87
2021/11/04 07:13:33;;;;;;;84.85;15.77;;;4.30;99.90;;;;;;5017380;28;20863;-86
2021/11/04 07:16:00;;;;;;;78.30;16.45;;;4.30;99.90;;;;;;5004598;28;20044;-86
2021/11/04 07:18:27;;;;;;;145.52;18.52;;;4.30;99.90;;;;;;5001929;28;20045;-87
2021/11/04 07:21:05;;;;;;;51.38;14.65;;;4.40;99.90;;;;;;4990202;28;20048;-86
2021/11/04 07:24:01;;;;;;;89.05;15.85;;;4.40;99.90;;;;;;5001913;28;20048;-86
2021/11/04 07:26:38;;;;;;;103.63;18.88;;;4.40;99.90;;;;;;5007755;28;20092;-86
2021/11/04 07:29:05;;;;;;;143.52;18.60;;;4.40;99.90;;;;;;5020236;28;20563;-86
2021/11/04 07:31:45;;;;;;;153.15;17.75;;;4.40;99.90;;;;;;5005611;28;20045;-88
2021/11/04 07:34:12;;;;;;;84.75;12.73;;;4.40;99.90;;;;;;5004824;28;20037;-87
2021/11/04 07:36:40;;;;;;;168.38;17.50;;;4.40;99.90;;;;;;5004558;28;20033;-86
2021/11/04 07:39:08;;;;;;;251.50;18.77;;;4.40;99.90;;;;;;5020429;28;20380;-86
2021/11/04 07:41:35;;;;;;;156.40;16.10;;;4.40;99.90;;;;;;5008480;28;20037;-88
2021/11/04 07:44:02;;;;;;;87.95;14.27;;;4.40;99.90;;;;;;4998437;28;22502;-86
2021/11/04 07:46:28;;;;;;;191.80;17.85;;;4.40;99.90;;;;;;5037782;28;20188;-86
2021/11/04 07:48:54;;;;;;;109.93;17.88;;;4.40;99.90;;;;;;5003898;28;20131;-88
2021/11/04 07:51:21;;;;;;;126.88;15.70;;;4.40;99.90;;;;;;5016207;28;20511;-86
2021/11/04 07:53:47;;;;;;;291.88;23.92;;;4.40;99.90;;;;;;5000752;28;20042;-86
2021/11/04 07:56:13;;;;;;;296.33;20.20;;;4.40;99.90;;;;;;4987554;28;20041;-88
2021/11/04 07:58:39;;;;;;;181.25;16.13;;;4.40;99.90;;;;;;5017525;28;20034;-86
2021/11/04 08:01:05;;;;;;;231.57;18.23;;;4.40;99.90;;;;;;5004409;28;20041;-86
2021/11/04 08:03:31;;;;;;;138.45;16.38;;;4.40;99.90;;;;;;4989635;28;20518;-86
2021/11/04 08:05:57;;;;;;;150.50;16.95;;;4.40;99.90;;;;;;5017886;28;20033;-86
2021/11/04 08:08:23;;;;;;;205.55;18.02;;;4.40;99.90;;;;;;5001934;28;20848;-86
2021/11/04 08:10:53;;;;;;;109.10;15.45;;;4.50;99.90;;;;;;5001021;28;20312;-85
2021/11/04 08:13:20;;;;;;;64.63;11.63;;;4.50;99.90;;;;;;5003036;28;20168;-86
2021/11/04 08:15:46;;;;;;;106.10;12.43;;;4.50;99.90;;;;;;4985520;28;20532;-87
2021/11/04 08:18:11;;;;;;;85.47;14.68;;;4.50;99.90;;;;;;5002858;28;20332;-86
2021/11/04 08:20:38;;;;;;;93.82;13.30;;;4.50;99.90;;;;;;5004301;28;20236;-86
2021/11/04 08:23:23;;;;;;;58.22;12.52;;;4.50;99.90;;;;;;5006758;28;20072;-86
2021/11/04 08:25:48;;;;;;;46.72;13.35;;;4.60;99.90;;;;;;5003916;28;20041;-86
2021/11/04 08:28:14;;;;;;;106.57;16.90;;;4.60;99.90;;;;;;4981147;28;20466;-86
2021/11/04 08:30:40;;;;;;;111.93;14.43;;;4.70;99.90;;;;;;5007164;28;20030;-86
2021/11/04 08:33:06;;;;;;;67.25;15.43;;;4.70;99.90;;;;;;5016774;28;20577;-86
2021/11/04 08:35:32;;;;;;;136.05;16.48;;;4.80;99.90;;;;;;5001044;28;20045;-86
2021/11/04 08:38:01;;;;;;;121.30;13.50;;;4.90;99.90;;;;;;5003499;28;20412;-86
2021/11/04 08:40:27;;;;;;;90.20;13.05;;;4.90;99.90;;;;;;5015303;28;20413;-86
2021/11/04 08:42:52;;;;;;;220.27;18.83;;;4.90;99.90;;;;;;5016900;28;20042;-87
2021/11/04 08:45:19;;;;;;;99.13;14.90;;;5.00;99.90;;;;;;4999132;28;20037;-86
2021/11/04 08:47:45;;;;;;;212.90;19.35;;;5.00;99.90;;;;;;5001381;28;20111;-89
2021/11/04 08:50:13;;;;;;;140.73;16.67;;;5.00;99.90;;;;;;5004194;28;20041;-87
2021/11/04 08:52:39;;;;;;;107.32;16.42;;;5.10;99.90;;;;;;5004525;28;20326;-86
2021/11/04 08:55:06;;;;;;;83.10;13.63;;;5.10;99.90;;;;;;5016015;28;20408;-86
2021/11/04 08:57:32;;;;;;;106.22;16.73;;;5.10;99.90;;;;;;5014360;28;20033;-86
2021/11/04 08:59:58;;;;;;;59.67;13.43;;;5.20;99.90;;;;;;5002817;28;20511;-89
2021/11/04 09:02:25;;;;;;;147.10;17.52;;;5.20;99.90;;;;;;5019003;28;20030;-85
2021/11/04 09:04:52;;;;;;;156.27;17.00;;;5.20;99.90;;;;;;4986700;28;20091;-88
2021/11/04 09:07:21;;;;;;;123.93;16.17;;;5.30;99.90;;;;;;5000991;28;20041;-86
2021/11/04 09:09:48;;;;;;;119.00;16.00;;;5.30;99.90;;;;;;5017831;28;20440;-88
2021/11/04 09:12:15;;;;;;;93.63;14.45;;;5.40;99.90;;;;;;5001868;28;20551;-86
2021/11/04 09:14:42;;;;;;;64.55;15.52;;;5.40;99.90;;;;;;5005802;28;20504;-87
2021/11/04 09:17:08;;;;;;;149.68;17.90;;;5.40;99.90;;;;;;5002892;28;20801;-88
2021/11/04 09:19:34;;;;;;;217.90;18.95;;;5.40;99.90;;;;;;5016857;28;20033;-88
2021/11/04 09:22:00;;;;;;;122.57;16.20;;;5.40;99.90;;;;;;5001386;28;20218;-86
2021/11/04 09:24:30;;;;;;;101.10;15.15;;;5.50;99.90;;;;;;5002293;28;20358;-87
2021/11/04 09:26:57;;;;;;;73.20;15.23;;;5.50;99.90;;;;;;5007770;28;20040;-87
2021/11/04 09:29:25;;;;;;;96.13;15.25;;;5.60;99.90;;;;;;5002063;28;20515;-86
2021/11/04 09:31:51;;;;;;;116.60;20.15;;;5.60;99.90;;;;;;4986607;28;20496;-88
2021/11/04 09:34:18;;;;;;;144.98;19.30;;;5.70;99.90;;;;;;5000128;28;20037;-87
2021/11/04 09:36:44;;;;;;;168.48;16.90;;;5.70;99.90;;;;;;5000350;28;20045;-86
2021/11/04 09:39:10;;;;;;;66.65;15.07;;;5.70;99.90;;;;;;5019764;28;20087;-86
2021/11/04 09:41:36;;;;;;;116.63;17.38;;;5.80;99.90;;;;;;4995688;28;20061;-86
2021/11/04 09:44:03;;;;;;;62.97;15.60;;;5.80;99.90;;;;;;4988562;28;20044;-88
2021/11/04 09:46:30;;;;;;;73.80;15.40;;;5.80;99.90;;;;;;4995470;28;20034;-86
2021/11/04 09:48:56;;;;;;;99.13;15.32;;;5.90;99.90;;;;;;5000963;28;20098;-89
2021/11/04 09:51:22;;;;;;;129.80;15.63;;;5.90;99.90;;;;;;5002346;28;20049;-86
2021/11/04 09:53:49;;;;;;;169.57;16.13;;;5.90;99.90;;;;;;4997125;28;20242;-85
2021/11/04 09:56:15;;;;;;;70.60;15.90;;;5.90;99.90;;;;;;4986300;28;20057;-88
2021/11/04 09:58:43;;;;;;;54.05;17.85;;;6.00;99.90;;;;;;5022624;28;20033;-87
2021/11/04 10:01:25;;;;;;;52.35;18.05;;;6.10;99.90;;;;;;5003035;28;20036;-88
2021/11/04 10:03:52;;;;;;;29.80;16.03;;;6.10;99.90;;;;;;5037968;28;20605;-85
2021/11/04 10:06:22;;;;;;;50.33;18.30;;;6.20;99.90;;;;;;5004078;28;20037;-86
2021/11/04 10:08:51;;;;;;;52.58;19.77;;;6.20;99.90;;;;;;5004477;28;20136;-86
2021/11/04 10:11:18;;;;;;;45.70;19.80;;;6.20;99.90;;;;;;4999457;28;20426;-86
2021/11/04 10:13:45;;;;;;;47.40;20.17;;;6.20;99.90;;;;;;4995609;28;20041;-90
2021/11/04 10:16:12;;;;;;;44.30;17.55;;;6.20;99.90;;;;;;5020115;28;20041;-87
2021/11/04 10:18:44;;;;;;;65.65;20.90;;;6.20;99.90;;;;;;5003255;28;20036;-86
2021/11/04 10:21:09;;;;;;;56.53;19.98;;;6.30;99.90;;;;;;5022751;28;20060;-88
2021/11/04 10:23:41;;;;;;;60.00;21.08;;;6.30;99.90;;;;;;5022457;28;20289;-86
2021/11/04 10:26:09;;;;;;;72.68;21.50;;;6.30;99.90;;;;;;5001439;28;20033;-88
2021/11/04 10:28:38;;;;;;;58.42;21.25;;;6.40;99.90;;;;;;5000430;28;20121;-87
2021/11/04 10:31:06;;;;;;;69.05;19.95;;;6.50;99.90;;;;;;5020208;28;20619;-85
2021/11/04 10:33:38;;;;;;;72.78;20.67;;;6.50;99.90;;;;;;5004268;28;20038;-86
2021/11/04 10:36:10;;;;;;;66.18;22.90;;;6.60;99.90;;;;;;5003631;28;20036;-85
2021/11/04 10:38:45;;;;;;;50.90;19.48;;;6.70;99.90;;;;;;5014913;28;21888;-85
2021/11/04 10:41:39;;;;;;;57.80;21.83;;;6.70;99.90;;;;;;5022610;28;20033;-86
2021/11/04 10:44:20;;;;;;;48.10;20.02;;;6.80;99.90;;;;;;5014568;28;20045;-88
2021/11/04 10:46:53;;;;;;;53.97;21.63;;;6.80;99.90;;;;;;5022950;28;20041;-86
2021/11/04 10:49:25;;;;;;;50.58;23.33;;;7.00;99.90;;;;;;5022688;28;20143;-85
2021/11/04 10:52:00;;;;;;;46.33;22.20;;;7.10;99.90;;;;;;5002253;28;20049;-85
2021/11/04 10:54:43;;;;;;;38.88;20.02;;;7.10;99.90;;;;;;4987278;28;20041;-88
2021/11/04 10:57:12;;;;;;;44.80;20.38;;;7.10;99.90;;;;;;5013740;28;20040;-90
2021/11/04 10:59:44;;;;;;;43.28;21.55;;;7.10;99.90;;;;;;5013594;28;20051;-87
2021/11/04 11:02:10;;;;;;;43.87;21.20;;;7.10;99.90;;;;;;4999712;28;20033;-84
2021/11/04 11:04:36;;;;;;;34.03;20.77;;;7.10;99.90;;;;;;5024370;28;20296;-84
2021/11/04 11:07:04;;;;;;;39.65;20.17;;;7.10;99.90;;;;;;4985816;28;20132;-84
2021/11/04 11:09:35;;;;;;;28.58;17.45;;;7.20;99.90;;;;;;5005871;28;20034;-84
2021/11/04 11:12:04;;;;;;;37.40;19.95;;;7.20;99.90;;;;;;5018083;28;20041;-85
2021/11/04 11:14:32;;;;;;;41.55;19.58;;;7.20;99.90;;;;;;5018151;28;20107;-85
2021/11/04 11:17:00;;;;;;;32.70;18.33;;;7.20;99.90;;;;;;5007512;28;20040;-84
2021/11/04 11:19:44;;;;;;;29.73;18.27;;;7.20;99.90;;;;;;5000479;28;20037;-86
2021/11/04 11:22:11;;;;;;;29.17;17.85;;;7.30;99.90;;;;;;5015103;28;20048;-86
2021/11/04 11:24:39;;;;;;;24.35;16.20;;;7.40;99.90;;;;;;5015384;28;20132;-84
2021/11/04 11:27:23;;;;;;;33.08;18.85;;;7.40;99.90;;;;;;5021275;28;20037;-84
2021/11/04 11:29:49;;;;;;;31.40;18.23;;;7.50;99.90;;;;;;5035777;28;20106;-85
2021/11/04 11:32:27;;;;;;;29.75;18.33;;;7.50;99.90;;;;;;5002804;28;20038;-84
2021/11/04 11:35:14;;;;;;;37.80;20.65;;;7.70;99.90;;;;;;5023073;28;20048;-84
2021/11/04 11:38:03;;;;;;;30.55;18.40;;;7.80;99.90;;;;;;5023380;28;20400;-84
2021/11/04 11:40:31;;;;;;;29.70;17.50;;;7.80;99.90;;;;;;4998204;28;20041;-86
2021/11/04 11:43:17;;;;;;;26.02;16.08;;;7.90;99.90;;;;;;5022278;28;20048;-84
2021/11/04 11:45:59;;;;;;;27.65;16.77;;;8.00;99.90;;;;;;5013629;28;20370;-85
2021/11/04 11:48:28;;;;;;;24.02;15.45;;;8.10;99.90;;;;;;5003517;28;20045;-84
2021/11/04 11:50:56;;;;;;;27.25;17.00;;;8.10;99.90;;;;;;5018537;28;20125;-85
2021/11/04 11:53:25;;;;;;;24.38;16.25;;;8.20;99.90;;;;;;5021636;28;20049;-85
2021/11/04 11:55:55;;;;;;;26.10;16.00;;;8.30;99.90;;;;;;5019077;28;20037;-85
2021/11/04 11:58:31;;;;;;;22.02;15.55;;;8.40;99.90;;;;;;5003355;28;20076;-86
2021/11/04 12:01:03;;;;;;;24.48;16.10;;;8.50;99.90;;;;;;5001581;28;20046;-86
2021/11/04 12:06:12;;;;;;;24.80;15.95;;;8.60;99.90;;;;;;5037711;28;20041;-86
2021/11/04 12:08:40;;;;;;;21.55;13.55;;;8.70;99.90;;;;;;5021759;28;20117;-85
2021/11/04 12:11:08;;;;;;;18.05;12.57;;;8.80;99.90;;;;;;5021868;28;20500;-85
2021/11/04 12:13:41;;;;;;;19.98;13.48;;;8.90;99.90;;;;;;5000386;28;20041;-86
2021/11/04 12:16:20;;;;;;;20.27;13.00;;;9.00;99.90;;;;;;5004172;28;20131;-86
2021/11/04 12:18:54;;;;;;;17.15;11.05;;;9.10;99.90;;;;;;5017470;28;20040;-85
2021/11/04 12:21:24;;;;;;;29.92;15.55;;;9.10;99.90;;;;;;5003918;28;20072;-86
2021/11/04 12:23:51;;;;;;;22.90;12.65;;;9.10;99.90;;;;;;5014949;28;20128;-86
2021/11/04 12:26:37;;;;;;;26.13;14.27;;;9.20;99.90;;;;;;5002578;28;20120;-85
2021/11/04 12:29:05;;;;;;;34.33;15.13;;;9.20;99.90;;;;;;5010124;22;20102;-85
2021/11/04 12:31:40;;;;;;;12.75;8.45;;;9.20;99.90;;;;;;5003642;28;20410;-85
2021/11/04 12:34:31;;;;;;;16.27;10.75;;;9.30;99.90;;;;;;4979126;28;20030;-84
2021/11/04 12:36:56;;;;;;;16.35;12.00;;;9.40;99.90;;;;;;5001147;28;20124;-86
2021/11/04 12:39:55;;;;;;;20.02;11.68;;;9.50;99.90;;;;;;4966105;28;20132;-84
2021/11/04 12:42:22;;;;;;;11.10;8.38;;;9.60;99.90;;;;;;4999441;28;20037;-85
2021/11/04 12:44:48;;;;;;;10.60;8.07;;;9.50;99.90;;;;;;5001385;28;20033;-86